createdAt,value
2022-12-08T00:01:38.705Z,101490.97
2022-12-08T00:04:13.270Z,101493.69
2022-12-08T00:07:01.336Z,101484.22
2022-12-08T00:09:38.689Z,101482.56
2022-12-08T00:12:11.663Z,101479.97
2022-12-08T00:14:44.041Z,101474.81
2022-12-08T00:17:16.891Z,101480.03
2022-12-08T00:19:45.887Z,101480.94
2022-12-08T00:22:16.428Z,101476.69
2022-12-08T00:24:46.644Z,101483.66
2022-12-08T00:27:21.154Z,101477.53
2022-12-08T00:29:50.806Z,101480.94
2022-12-08T00:32:20.963Z,101474.94
2022-12-08T00:34:50.676Z,101467.19
2022-12-08T00:37:19.303Z,101465.56
2022-12-08T00:39:54.658Z,101458.78
2022-12-08T00:42:24.322Z,101457.06
2022-12-08T00:44:54.908Z,101449.34
2022-12-08T00:47:25.192Z,101445.94
2022-12-08T00:49:54.218Z,101442.56
2022-12-08T00:52:23.884Z,101439.16
2022-12-08T00:54:56.567Z,101432.22
2022-12-08T00:57:26.089Z,101432.25
2022-12-08T00:59:54.957Z,101426.22
2022-12-08T01:02:33.578Z,101421.06
2022-12-08T01:05:02.209Z,101421.97
2022-12-08T01:07:33.418Z,101419.41
2022-12-08T01:10:04.479Z,101416.84
2022-12-08T01:12:33.506Z,101418.69
2022-12-08T01:15:09.235Z,101417.91
2022-12-08T01:17:40.359Z,101411.03
2022-12-08T01:20:11.180Z,101414.56
2022-12-08T01:22:39.794Z,101413.72
2022-12-08T01:25:08.887Z,101399.81
2022-12-08T01:27:37.667Z,101402.47
2022-12-08T01:30:07.490Z,101406.84
2022-12-08T01:32:41.478Z,101396.50
2022-12-08T01:35:14.438Z,101399.19
2022-12-08T01:37:43.088Z,101395.75
2022-12-08T01:40:12.347Z,101393.22
2022-12-08T01:42:41.074Z,101392.34
2022-12-08T01:45:16.835Z,101389.81
2022-12-08T01:47:57.810Z,101387.22
2022-12-08T01:50:29.884Z,101382.13
2022-12-08T01:53:03.179Z,101381.22
2022-12-08T01:55:35.050Z,101376.09
2022-12-08T01:58:13.883Z,101381.28
2022-12-08T02:00:51.553Z,101378.69
2022-12-08T02:03:28.810Z,101373.56
2022-12-08T02:05:57.439Z,101379.63
2022-12-08T02:08:27.640Z,101369.25
2022-12-08T02:10:57.344Z,101370.94
2022-12-08T02:13:27.249Z,101367.50
2022-12-08T02:16:06.983Z,101373.56
2022-12-08T02:19:28.928Z,101372.75
2022-12-08T02:21:58.787Z,101367.56
2022-12-08T02:24:38.146Z,101364.09
2022-12-08T02:27:35.328Z,101367.59
2022-12-08T02:30:13.623Z,101360.66
2022-12-08T02:33:22.698Z,101371.16
2022-12-08T02:35:59.926Z,101368.56
2022-12-08T02:38:41.965Z,101376.38
2022-12-08T02:41:25.617Z,101359.09
2022-12-08T02:44:02.066Z,101360.13
2022-12-08T02:46:37.352Z,101358.56
2022-12-08T02:49:08.659Z,101358.69
2022-12-08T02:51:41.003Z,101353.53
2022-12-08T02:54:09.979Z,101352.78
2022-12-08T02:56:59.669Z,101350.31
2022-12-08T02:59:38.309Z,101340.88
2022-12-08T03:02:28.422Z,101339.28
2022-12-08T03:05:08.178Z,101326.28
2022-12-08T03:07:44.451Z,101337.69
2022-12-08T03:10:17.896Z,101330.84
2022-12-08T03:12:52.057Z,101329.09
2022-12-08T03:15:23.267Z,101325.66
2022-12-08T03:17:58.293Z,101317.06
2022-12-08T03:20:29.617Z,101321.38
2022-12-08T03:23:03.891Z,101324.97
2022-12-08T03:25:42.827Z,101316.31
2022-12-08T03:28:14.757Z,101311.97
2022-12-08T03:30:47.852Z,101309.34
2022-12-08T03:33:25.055Z,101305.72
2022-12-08T03:35:55.793Z,101295.28
2022-12-08T03:38:26.008Z,101293.53
2022-12-08T03:41:14.439Z,101294.34
2022-12-08T03:43:43.089Z,101286.75
2022-12-08T03:46:14.944Z,101290.25
2022-12-08T03:48:43.541Z,101280.75
2022-12-08T03:51:12.644Z,101280.81
2022-12-08T03:53:43.335Z,101279.06
2022-12-08T03:56:26.870Z,101273.81
2022-12-08T03:59:02.761Z,101267.84
2022-12-08T04:01:32.650Z,101264.38
2022-12-08T04:04:01.237Z,101264.28
2022-12-08T04:06:32.112Z,101260.78
2022-12-08T04:09:02.208Z,101262.53
2022-12-08T04:11:30.890Z,101258.19
2022-12-08T04:13:59.472Z,101252.09
2022-12-08T04:16:28.793Z,101253.78
2022-12-08T04:18:57.521Z,101250.28
2022-12-08T04:21:26.376Z,101245.97
2022-12-08T04:24:00.774Z,101241.53
2022-12-08T04:26:33.626Z,101233.69
2022-12-08T04:29:03.138Z,101232.91
2022-12-08T04:31:31.982Z,101232.91
2022-12-08T04:34:00.812Z,101226.81
2022-12-08T04:36:29.418Z,101225.03
2022-12-08T04:38:59.544Z,101226.78
2022-12-08T04:41:28.106Z,101231.03
2022-12-08T04:43:58.323Z,101229.25
2022-12-08T04:46:26.796Z,101234.38
2022-12-08T04:48:55.225Z,101230.91
2022-12-08T04:51:28.016Z,101228.31
2022-12-08T04:53:57.487Z,101229.94
2022-12-08T04:56:26.087Z,101237.69
2022-12-08T04:58:55.686Z,101228.09
2022-12-08T05:01:26.878Z,101220.34
2022-12-08T05:04:05.255Z,101219.44
2022-12-08T05:06:36.967Z,101216.06
2022-12-08T05:09:14.715Z,101216.19
2022-12-08T05:11:48.566Z,101218.03
2022-12-08T05:14:21.599Z,101217.25
2022-12-08T05:16:53.670Z,101209.44
2022-12-08T05:19:22.346Z,101208.66
2022-12-08T05:21:50.957Z,101200.94
2022-12-08T05:24:22.307Z,101205.38
2022-12-08T05:26:58.555Z,101198.47
2022-12-08T05:29:28.009Z,101191.56
2022-12-08T05:31:59.710Z,101186.31
2022-12-08T05:34:34.454Z,101175.91
2022-12-08T05:37:05.935Z,101175.06
2022-12-08T05:39:36.666Z,101183.72
2022-12-08T05:42:05.604Z,101187.09
2022-12-08T05:44:34.296Z,101182.81
2022-12-08T05:47:05.450Z,101188.00
2022-12-08T05:49:34.236Z,101188.84
2022-12-08T05:52:03.945Z,101187.97
2022-12-08T05:54:35.718Z,101181.03
2022-12-08T05:57:04.356Z,101174.91
2022-12-08T05:59:34.144Z,101177.50
2022-12-08T06:02:07.424Z,101166.22
2022-12-08T06:04:37.827Z,101172.19
2022-12-08T06:07:15.961Z,101170.44
2022-12-08T06:09:44.934Z,101161.72
2022-12-08T06:12:14.624Z,101167.69
2022-12-08T06:14:44.025Z,101171.94
2022-12-08T06:17:15.126Z,101162.28
2022-12-08T06:19:43.898Z,101158.06
2022-12-08T06:22:12.476Z,101166.69
2022-12-08T06:24:41.127Z,101164.09
2022-12-08T06:27:09.616Z,101167.59
2022-12-08T06:29:38.215Z,101168.44
2022-12-08T06:32:08.196Z,101172.78
2022-12-08T06:34:38.883Z,101170.19
2022-12-08T06:37:07.746Z,101151.22
2022-12-08T06:39:36.338Z,101150.44
2022-12-08T06:42:22.478Z,101155.69
2022-12-08T06:44:53.097Z,101154.06
2022-12-08T06:47:26.197Z,101154.94
2022-12-08T06:49:56.717Z,101160.09
2022-12-08T06:52:31.329Z,101153.19
2022-12-08T06:54:59.840Z,101151.44
2022-12-08T06:57:28.394Z,101150.50
2022-12-08T06:59:57.843Z,101140.09
2022-12-08T07:02:26.524Z,101145.25
2022-12-08T07:04:57.836Z,101138.28
2022-12-08T07:07:26.301Z,101142.69
2022-12-08T07:09:54.734Z,101139.25
2022-12-08T07:12:23.448Z,101135.75
2022-12-08T07:14:52.529Z,101136.53
2022-12-08T07:17:23.801Z,101133.03
2022-12-08T07:20:10.720Z,101131.31
2022-12-08T07:32:57.889Z,101135.56
2022-12-08T08:16:09.923Z,101111.88
2022-12-08T08:27:54.866Z,101122.53
2022-12-08T08:46:30.854Z,101116.56
2022-12-08T09:23:14.854Z,101108.94
2022-12-08T16:25:23.217Z,100857.91
2022-12-08T16:28:12.370Z,100861.19
2022-12-08T16:30:41.726Z,100863.84
2022-12-08T16:33:11.770Z,100856.13
2022-12-08T16:35:40.965Z,100855.47
2022-12-08T16:38:09.759Z,100851.28
2022-12-08T16:41:00.320Z,100855.75
2022-12-08T16:43:27.776Z,100860.34
2022-12-08T16:45:56.853Z,100856.81
2022-12-08T16:48:25.410Z,100855.19
2022-12-08T16:50:57.590Z,100863.28
2022-12-08T16:53:26.149Z,100863.28
2022-12-08T16:55:56.215Z,100862.53
2022-12-08T16:58:24.962Z,100860.94
2022-12-08T17:00:54.669Z,100865.47
2022-12-08T17:03:23.209Z,100866.47
2022-12-08T17:05:52.811Z,100871.00
2022-12-08T17:08:21.442Z,100866.75
2022-12-08T17:11:07.686Z,100865.16
2022-12-08T17:13:39.921Z,100869.69
2022-12-08T17:16:12.296Z,100867.09
2022-12-08T17:18:41.282Z,100869.03
2022-12-08T17:21:13.483Z,100865.66
2022-12-08T17:23:43.172Z,100871.84
2022-12-08T17:26:12.431Z,100857.25
2022-12-08T17:31:33.838Z,100865.13
2022-12-08T17:34:03.195Z,100867.91
2022-12-08T17:36:32.711Z,100868.03
2022-12-08T17:39:02.471Z,100866.41
2022-12-08T17:41:31.262Z,100867.34
2022-12-08T17:44:01.567Z,100867.34
2022-12-08T17:46:30.264Z,100873.41
2022-12-08T17:48:58.726Z,100876.84
2022-12-08T17:51:27.755Z,100875.06
2022-12-08T17:53:56.312Z,100870.81
2022-12-08T17:56:25.138Z,100871.66
2022-12-08T17:58:55.007Z,100871.72
2022-12-08T18:01:27.794Z,100881.31
2022-12-08T18:03:56.352Z,100875.28
2022-12-08T18:06:29.630Z,100871.00
2022-12-08T18:09:02.347Z,100874.53
2022-12-08T18:11:31.690Z,100878.97
2022-12-08T18:14:00.698Z,100880.78
2022-12-08T18:16:31.806Z,100879.06
2022-12-08T18:19:00.479Z,100888.66
2022-12-08T18:21:29.036Z,100881.78
2022-12-08T18:23:57.881Z,100880.09
2022-12-08T18:26:26.412Z,100876.75
2022-12-08T18:28:54.941Z,100882.94
2022-12-08T18:31:24.592Z,100876.09
2022-12-08T18:33:55.525Z,100871.81
2022-12-08T18:36:26.871Z,100872.75
2022-12-08T18:38:55.956Z,100866.78
2022-12-08T18:41:27.193Z,100869.38
2022-12-08T18:43:57.913Z,100871.16
2022-12-08T18:46:27.143Z,100864.34
2022-12-08T18:48:57.225Z,100870.50
2022-12-08T18:51:26.939Z,100862.78
2022-12-08T18:53:55.540Z,100861.03
2022-12-08T18:56:26.794Z,100862.94
2022-12-08T18:59:01.274Z,100869.88
2022-12-08T19:01:32.670Z,100858.78
2022-12-08T19:06:52.581Z,100865.72
2022-12-08T19:09:22.825Z,100869.25
2022-12-08T19:11:51.391Z,100872.75
2022-12-08T19:14:25.733Z,100865.91
2022-12-08T19:16:56.570Z,100875.44
2022-12-08T19:19:26.962Z,100865.13
2022-12-08T19:21:55.689Z,100868.63
2022-12-08T19:24:24.649Z,100862.59
2022-12-08T19:26:53.835Z,100862.75
2022-12-08T19:29:22.962Z,100861.91
2022-12-08T19:31:51.825Z,100863.59
2022-12-08T19:34:20.583Z,100863.66
2022-12-08T19:36:50.580Z,100859.44
2022-12-08T19:39:38.432Z,100861.25
2022-12-08T19:42:33.255Z,100861.25
2022-12-08T19:45:05.623Z,100859.50
2022-12-08T19:47:34.681Z,100857.16
2022-12-08T19:50:20.537Z,100863.25
2022-12-08T19:52:50.542Z,100858.03
2022-12-08T19:55:19.665Z,100856.31
2022-12-08T19:57:48.631Z,100864.13
2022-12-08T20:00:17.786Z,100870.22
2022-12-08T20:02:47.312Z,100864.13
2022-12-08T20:05:16.787Z,100873.78
2022-12-08T20:07:45.992Z,100875.47
2022-12-08T20:10:18.186Z,100882.44
2022-12-08T20:12:48.797Z,100869.59
2022-12-08T20:15:17.570Z,100864.53
2022-12-08T20:17:46.048Z,100865.63
2022-12-08T20:20:16.184Z,100854.47
2022-12-08T20:22:45.464Z,100861.69
2022-12-08T20:25:15.637Z,100858.44
2022-12-08T20:27:44.727Z,100859.41
2022-12-08T20:30:16.985Z,100861.22
2022-12-08T20:32:46.283Z,100860.44
2022-12-08T20:35:19.477Z,100868.94
2022-12-08T20:37:48.226Z,100875.81
2022-12-08T20:40:18.671Z,100876.66
2022-12-08T20:42:50.593Z,100874.00
2022-12-08T20:45:19.387Z,100877.44
2022-12-08T20:47:53.763Z,100885.34
2022-12-08T20:50:25.304Z,100891.31
2022-12-08T20:52:54.008Z,100895.47
2022-12-08T20:55:23.962Z,100886.66
2022-12-08T20:57:52.607Z,100899.69
2022-12-08T21:00:23.528Z,100885.88
2022-12-08T21:02:56.567Z,100891.97
2022-12-08T21:05:28.268Z,100904.03
2022-12-08T21:07:57.071Z,100907.41
2022-12-08T21:10:27.394Z,100896.06
2022-12-08T21:12:56.125Z,100898.59
2022-12-08T21:15:24.929Z,100900.22
2022-12-08T21:17:55.346Z,100900.41
2022-12-08T21:20:24.266Z,100899.50
2022-12-08T21:22:53.101Z,100896.78
2022-12-08T21:25:27.626Z,100898.50
2022-12-08T21:28:05.906Z,100890.63
2022-12-08T21:30:34.561Z,100891.41
2022-12-08T21:33:09.247Z,100881.84
2022-12-08T21:35:40.666Z,100884.44
2022-12-08T21:38:09.675Z,100888.16
2022-12-08T21:40:39.964Z,100883.09
2022-12-08T21:43:11.618Z,100883.09
2022-12-08T21:45:40.573Z,100884.06
2022-12-08T21:48:29.135Z,100896.19
2022-12-08T21:51:04.852Z,100897.03
2022-12-08T21:53:33.672Z,100904.88
2022-12-08T21:56:02.283Z,100904.09
2022-12-08T21:58:33.070Z,100901.50
2022-12-08T22:01:12.599Z,100902.47
2022-12-08T22:03:42.421Z,100897.09
2022-12-08T22:06:13.852Z,100903.72
2022-12-08T22:08:43.850Z,100917.56
2022-12-08T22:11:13.911Z,100911.31
2022-12-08T22:13:45.104Z,100909.50
2022-12-08T22:16:15.602Z,100915.56
2022-12-08T22:18:49.415Z,100906.91
2022-12-08T22:26:08.261Z,100887.91
2022-12-08T22:49:13.650Z,100910.03
2022-12-08T22:56:59.297Z,100912.28
2022-12-08T23:59:19.916Z,100875.69
